createdAt,value
2024-05-09T00:01:48.948Z,56693.09
2024-05-09T00:04:21.421Z,56691.06
2024-05-09T00:06:51.543Z,56691.06
2024-05-09T00:09:22.101Z,56691.06
2024-05-09T00:11:52.295Z,56691.06
2024-05-09T00:14:23.075Z,56689.06
2024-05-09T00:16:53.254Z,56691.06
2024-05-09T00:19:24.024Z,56691.06
2024-05-09T00:21:54.102Z,56689.06
2024-05-09T00:24:24.834Z,56693.09
2024-05-09T00:26:55.248Z,56691.06
2024-05-09T00:29:25.665Z,56693.09
2024-05-09T00:31:56.160Z,56693.09
2024-05-09T00:34:26.964Z,56691.06
2024-05-09T00:36:57.495Z,56693.09
2024-05-09T00:39:28.130Z,56695.09
2024-05-09T00:41:58.230Z,56695.09
2024-05-09T00:44:28.822Z,56691.06
2024-05-09T00:46:59.222Z,56693.09
2024-05-09T00:49:30.389Z,56691.06
2024-05-09T00:52:01.603Z,56693.09
2024-05-09T00:54:33.102Z,56691.06
2024-05-09T00:57:05.931Z,56691.06
2024-05-09T00:59:36.336Z,56691.06
2024-05-09T01:02:08.423Z,56691.06
2024-05-09T01:04:39.866Z,56687.06
2024-05-09T01:07:12.721Z,56691.06
2024-05-09T01:09:42.893Z,56693.09
2024-05-09T01:12:12.900Z,56691.06
2024-05-09T01:14:43.887Z,56691.06
2024-05-09T01:17:15.210Z,56687.06
2024-05-09T01:19:46.150Z,56693.09
2024-05-09T01:22:16.605Z,56693.09
2024-05-09T01:24:47.514Z,56691.06
2024-05-09T01:27:20.040Z,56693.09
2024-05-09T01:29:50.847Z,56687.06
2024-05-09T01:32:21.513Z,56689.06
2024-05-09T01:34:52.423Z,56689.06
2024-05-09T01:37:22.789Z,56689.06
2024-05-09T01:39:53.342Z,56687.06
2024-05-09T01:42:23.805Z,56689.06
2024-05-09T01:44:54.348Z,56691.06
2024-05-09T01:47:24.957Z,56689.06
2024-05-09T01:49:56.295Z,56691.06
2024-05-09T01:52:26.847Z,56689.06
2024-05-09T01:54:57.485Z,56691.06
2024-05-09T01:57:27.940Z,56687.06
2024-05-09T01:59:59.469Z,56689.06
2024-05-09T02:02:29.627Z,56687.06
2024-05-09T02:05:01.013Z,56689.06
2024-05-09T02:07:32.252Z,56689.06
2024-05-09T02:10:06.478Z,56689.06
2024-05-09T02:12:38.447Z,56687.06
2024-05-09T02:15:09.136Z,56689.06
2024-05-09T02:17:39.577Z,56691.06
2024-05-09T02:20:13.391Z,56687.06
2024-05-09T02:22:48.969Z,56685.03
2024-05-09T02:25:19.691Z,56687.06
2024-05-09T02:27:50.053Z,56687.06
2024-05-09T02:30:29.912Z,56685.03
2024-05-09T02:33:09.240Z,56687.06
2024-05-09T02:35:40.613Z,56685.03
2024-05-09T02:38:11.403Z,56687.06
2024-05-09T02:40:42.205Z,56687.06
2024-05-09T02:43:13.691Z,56687.06
2024-05-09T02:45:44.257Z,56685.03
2024-05-09T02:48:15.127Z,56687.06
2024-05-09T02:50:45.893Z,56687.06
2024-05-09T02:53:16.533Z,56691.06
2024-05-09T02:55:47.396Z,56685.03
2024-05-09T02:58:17.906Z,56687.06
2024-05-09T03:00:48.470Z,56687.06
2024-05-09T03:03:18.791Z,56687.06
2024-05-09T03:05:50.084Z,56685.03
2024-05-09T03:08:20.240Z,56685.03
2024-05-09T03:10:50.828Z,56685.03
2024-05-09T03:13:21.349Z,56685.03
2024-05-09T03:15:51.476Z,56685.03
2024-05-09T03:18:22.092Z,56687.06
2024-05-09T03:20:52.695Z,56685.03
2024-05-09T03:23:23.120Z,56683.03
2024-05-09T03:25:55.453Z,56685.03
2024-05-09T03:28:25.846Z,56687.06
2024-05-09T03:30:56.885Z,56685.03
2024-05-09T03:33:27.456Z,56683.03
2024-05-09T03:35:58.176Z,56683.03
2024-05-09T03:38:28.727Z,56685.03
2024-05-09T03:40:59.646Z,56687.06
2024-05-09T03:43:30.439Z,56683.03
2024-05-09T03:46:00.918Z,56683.03
2024-05-09T03:48:31.351Z,56685.03
2024-05-09T03:51:02.017Z,56683.03
2024-05-09T03:53:32.775Z,56685.03
2024-05-09T03:56:05.087Z,56685.03
2024-05-09T03:58:35.578Z,56683.03
2024-05-09T04:01:07.071Z,56685.03
2024-05-09T04:03:38.187Z,56685.03
2024-05-09T04:06:09.820Z,56685.03
2024-05-09T04:08:40.529Z,56683.03
2024-05-09T04:11:11.563Z,56683.03
2024-05-09T04:13:42.018Z,56685.03
2024-05-09T04:16:12.874Z,56685.03
2024-05-09T04:18:43.368Z,56685.03
2024-05-09T04:21:14.043Z,56683.03
2024-05-09T04:23:44.523Z,56683.03
2024-05-09T04:26:15.283Z,56685.03
2024-05-09T04:28:45.715Z,56683.03
2024-05-09T04:31:15.920Z,56685.03
2024-05-09T04:33:46.751Z,56681.03
2024-05-09T04:36:17.023Z,56683.03
2024-05-09T04:38:47.435Z,56683.03
2024-05-09T04:41:17.475Z,56685.03
2024-05-09T04:43:47.908Z,56685.03
2024-05-09T04:46:18.778Z,56683.03
2024-05-09T04:48:50.079Z,56685.03
2024-05-09T04:51:20.818Z,56683.03
2024-05-09T04:53:51.280Z,56683.03
2024-05-09T04:56:21.878Z,56681.03
2024-05-09T04:58:51.946Z,56681.03
2024-05-09T05:01:22.813Z,56683.03
2024-05-09T05:03:53.721Z,56681.03
2024-05-09T05:06:27.645Z,56683.03
2024-05-09T05:08:58.184Z,56683.03
2024-05-09T05:11:28.491Z,56681.03
2024-05-09T05:13:59.014Z,56683.03
2024-05-09T05:16:29.729Z,56681.03
2024-05-09T05:19:00.305Z,56681.03
2024-05-09T05:21:31.396Z,56683.03
2024-05-09T05:24:01.916Z,56683.03
2024-05-09T05:26:34.458Z,56681.03
2024-05-09T05:29:04.732Z,56681.03
2024-05-09T05:31:35.328Z,56681.03
2024-05-09T05:34:05.775Z,56681.03
2024-05-09T05:36:36.001Z,56681.03
2024-05-09T05:39:06.416Z,56679.00
2024-05-09T05:41:36.717Z,56679.00
2024-05-09T05:44:07.198Z,56683.03
2024-05-09T05:46:37.906Z,56683.03
2024-05-09T05:49:08.465Z,56679.00
2024-05-09T05:51:38.689Z,56683.03
2024-05-09T05:54:09.121Z,56679.00
2024-05-09T05:56:39.693Z,56679.00
2024-05-09T05:59:11.452Z,56679.00
2024-05-09T06:01:42.284Z,56677.00
2024-05-09T06:04:12.669Z,56679.00
2024-05-09T06:06:44.112Z,56679.00
2024-05-09T06:09:14.495Z,56679.00
2024-05-09T06:11:45.351Z,56679.00
2024-05-09T06:14:16.061Z,56679.00
2024-05-09T06:16:46.274Z,56681.03
2024-05-09T06:19:16.970Z,56679.00
2024-05-09T06:21:48.155Z,56683.03
2024-05-09T06:24:18.892Z,56679.00
2024-05-09T06:26:51.089Z,56681.03
2024-05-09T06:29:21.049Z,56683.03
2024-05-09T06:31:52.367Z,56679.00
2024-05-09T06:34:23.420Z,56679.00
2024-05-09T06:36:54.114Z,56681.03
2024-05-09T06:39:25.375Z,56681.03
2024-05-09T06:41:55.940Z,56677.00
2024-05-09T06:44:26.322Z,56677.00
2024-05-09T06:46:59.393Z,56679.00
2024-05-09T06:49:31.223Z,56679.00
2024-05-09T06:52:01.462Z,56681.03
2024-05-09T06:54:32.298Z,56681.03
2024-05-09T06:57:02.886Z,56681.03
2024-05-09T06:59:33.440Z,56679.00
2024-05-09T07:02:05.974Z,56679.00
2024-05-09T07:04:36.468Z,56681.03
2024-05-09T07:07:08.874Z,56679.00
2024-05-09T07:09:39.526Z,56679.00
2024-05-09T07:12:10.120Z,56683.03
2024-05-09T07:14:40.345Z,56679.00
2024-05-09T07:17:10.986Z,56679.00
2024-05-09T07:19:41.448Z,56679.00
2024-05-09T07:22:12.376Z,56679.00
2024-05-09T07:24:42.471Z,56675.00
2024-05-09T07:27:13.021Z,56677.00
2024-05-09T07:29:43.591Z,56679.00
2024-05-09T07:32:13.901Z,56677.00
2024-05-09T07:34:44.347Z,56677.00
2024-05-09T07:37:17.794Z,56679.00
2024-05-09T07:39:48.193Z,56677.00
2024-05-09T07:42:18.738Z,56679.00
2024-05-09T07:44:49.103Z,56677.00
2024-05-09T07:48:29.181Z,56677.00
2024-05-09T07:53:34.336Z,56679.00
2024-05-09T07:55:34.323Z,56677.00
2024-05-09T07:58:05.017Z,56677.00
2024-05-09T08:00:35.588Z,56672.97
2024-05-09T08:03:06.504Z,56675.00
2024-05-09T08:05:36.653Z,56677.00
2024-05-09T08:08:09.260Z,56677.00
2024-05-09T08:10:39.481Z,56675.00
2024-05-09T08:13:10.335Z,56675.00
2024-05-09T08:15:40.677Z,56675.00
2024-05-09T08:18:12.033Z,56672.97
2024-05-09T08:20:44.752Z,56672.97
2024-05-09T08:23:15.288Z,56677.00
2024-05-09T08:25:45.989Z,56677.00
2024-05-09T08:28:16.772Z,56675.00
2024-05-09T08:30:47.657Z,56675.00
2024-05-09T08:33:18.659Z,56675.00
2024-05-09T08:35:48.790Z,56672.97
2024-05-09T08:38:19.328Z,56675.00
2024-05-09T08:40:50.304Z,56672.97
2024-05-09T08:43:22.003Z,56677.00
2024-05-09T08:45:53.085Z,56675.00
2024-05-09T08:48:25.864Z,56672.97
2024-05-09T08:51:00.373Z,56675.00
2024-05-09T08:53:30.960Z,56677.00
2024-05-09T08:56:03.811Z,56672.97
2024-05-09T08:58:35.957Z,56679.00
2024-05-09T09:01:06.728Z,56675.00
2024-05-09T09:03:39.394Z,56675.00
2024-05-09T09:06:16.587Z,56675.00
2024-05-09T09:08:49.174Z,56672.97
2024-05-09T09:11:19.203Z,56670.97
2024-05-09T09:13:49.195Z,56672.97
2024-05-09T09:16:19.699Z,56672.97
2024-05-09T09:18:51.071Z,56677.00
2024-05-09T09:21:21.200Z,56675.00
2024-05-09T09:23:51.220Z,56675.00
2024-05-09T09:26:21.647Z,56675.00
2024-05-09T09:28:51.960Z,56672.97
2024-05-09T09:31:22.531Z,56675.00
2024-05-09T09:33:53.952Z,56672.97
2024-05-09T09:36:24.157Z,56675.00
2024-05-09T09:38:54.853Z,56679.00
2024-05-09T09:41:31.831Z,56672.97
2024-05-09T09:44:04.428Z,56670.97
2024-05-09T09:46:35.456Z,56672.97
2024-05-09T09:49:06.483Z,56672.97
2024-05-09T09:51:37.683Z,56672.97
2024-05-09T09:54:08.960Z,56675.00
2024-05-09T09:56:40.882Z,56670.97
2024-05-09T09:59:14.599Z,56677.00
2024-05-09T10:01:48.112Z,56672.97
2024-05-09T10:04:20.293Z,56670.97
2024-05-09T10:07:00.923Z,56675.00
2024-05-09T10:09:33.817Z,56672.97
2024-05-09T10:12:15.415Z,56670.97
2024-05-09T10:14:55.177Z,56675.00
2024-05-09T10:17:25.785Z,56675.00
2024-05-09T10:20:14.669Z,56672.97
2024-05-09T10:22:51.976Z,56672.97
2024-05-09T10:25:22.831Z,56672.97
2024-05-09T10:28:01.220Z,56672.97
2024-05-09T10:30:36.144Z,56672.97
2024-05-09T10:33:12.562Z,56672.97
2024-05-09T10:35:53.539Z,56675.00
2024-05-09T10:38:23.751Z,56675.00
2024-05-09T10:40:58.592Z,56675.00
2024-05-09T10:43:29.709Z,56670.97
2024-05-09T10:46:03.389Z,56675.00
2024-05-09T10:48:34.023Z,56677.00
2024-05-09T10:51:05.311Z,56677.00
2024-05-09T10:53:46.566Z,56677.00
2024-05-09T10:56:17.705Z,56679.00
2024-05-09T10:58:49.292Z,56681.03
2024-05-09T11:01:20.249Z,56683.03
2024-05-09T11:03:51.425Z,56685.03
2024-05-09T11:06:22.342Z,56683.03
2024-05-09T11:08:53.059Z,56683.03
2024-05-09T11:11:24.621Z,56685.03
2024-05-09T11:13:55.030Z,56685.03
2024-05-09T11:16:26.441Z,56687.06
2024-05-09T11:19:00.499Z,56689.06
2024-05-09T11:21:33.802Z,56687.06
2024-05-09T11:24:05.964Z,56687.06
2024-05-09T11:26:36.771Z,56689.06
2024-05-09T11:29:07.608Z,56685.03
2024-05-09T11:31:47.929Z,56689.06
2024-05-09T11:34:18.186Z,56689.06
2024-05-09T11:36:48.831Z,56687.06
2024-05-09T11:39:19.248Z,56691.06
2024-05-09T11:41:49.732Z,56689.06
2024-05-09T11:44:19.610Z,56687.06
2024-05-09T11:46:50.139Z,56689.06
2024-05-09T11:49:22.512Z,56687.06
2024-05-09T11:51:54.633Z,56687.06
2024-05-09T11:54:24.812Z,56689.06
2024-05-09T11:56:55.336Z,56687.06
2024-05-09T11:59:25.869Z,56689.06
2024-05-09T12:01:56.158Z,56685.03
2024-05-09T12:04:26.768Z,56685.03
2024-05-09T12:06:57.133Z,56687.06
2024-05-09T12:09:27.810Z,56689.06
2024-05-09T12:11:59.446Z,56685.03
2024-05-09T12:14:29.935Z,56685.03
2024-05-09T12:17:02.553Z,56687.06
2024-05-09T12:19:34.437Z,56687.06
2024-05-09T12:22:05.131Z,56683.03
2024-05-09T12:24:35.240Z,56685.03
2024-05-09T12:27:05.990Z,56683.03
2024-05-09T12:29:38.301Z,56683.03
2024-05-09T12:32:09.680Z,56685.03
2024-05-09T12:34:40.286Z,56685.03
2024-05-09T12:37:11.139Z,56687.06
2024-05-09T12:39:41.716Z,56685.03
2024-05-09T12:42:14.542Z,56689.06
2024-05-09T12:44:52.199Z,56687.06
2024-05-09T12:47:23.541Z,56691.06
2024-05-09T12:49:54.371Z,56691.06
2024-05-09T12:52:25.043Z,56687.06
2024-05-09T12:54:55.113Z,56687.06
2024-05-09T12:57:26.842Z,56687.06
2024-05-09T12:59:57.624Z,56685.03
2024-05-09T13:02:27.993Z,56689.06
2024-05-09T13:04:58.584Z,56687.06
2024-05-09T13:07:28.829Z,56689.06
2024-05-09T13:09:59.246Z,56689.06
2024-05-09T13:12:30.410Z,56685.03
2024-05-09T13:15:01.022Z,56685.03
2024-05-09T13:17:31.901Z,56685.03
2024-05-09T13:20:03.316Z,56689.06
2024-05-09T13:22:34.972Z,56687.06
2024-05-09T13:25:05.627Z,56687.06
2024-05-09T13:27:36.313Z,56693.09
2024-05-09T13:30:14.529Z,56693.09
2024-05-09T13:32:48.381Z,56687.06
2024-05-09T13:35:18.450Z,56691.06
2024-05-09T13:37:49.536Z,56695.09
2024-05-09T13:40:29.800Z,56695.09
2024-05-09T13:43:05.091Z,56693.09
2024-05-09T13:45:36.523Z,56693.09
2024-05-09T13:48:07.905Z,56697.09
2024-05-09T13:50:38.104Z,56695.09
2024-05-09T13:53:11.370Z,56695.09
2024-05-09T13:55:43.923Z,56697.09
2024-05-09T13:58:14.466Z,56695.09
2024-05-09T14:00:48.535Z,56695.09
2024-05-09T14:03:20.912Z,56695.09
2024-05-09T14:05:52.266Z,56693.09
2024-05-09T14:08:23.788Z,56697.09
2024-05-09T14:10:54.745Z,56697.09
2024-05-09T14:13:25.911Z,56699.13
2024-05-09T14:15:56.478Z,56699.13
2024-05-09T14:18:27.091Z,56699.13
2024-05-09T14:20:57.399Z,56699.13
2024-05-09T14:23:27.955Z,56699.13
2024-05-09T14:25:58.413Z,56695.09
2024-05-09T14:28:29.272Z,56695.09
2024-05-09T14:30:59.300Z,56695.09
2024-05-09T14:33:31.962Z,56697.09
2024-05-09T14:36:02.316Z,56697.09
2024-05-09T14:38:33.327Z,56691.06
2024-05-09T14:41:03.461Z,56699.13
2024-05-09T14:43:34.053Z,56699.13
2024-05-09T14:46:04.571Z,56697.09
2024-05-09T14:48:35.277Z,56697.09
2024-05-09T14:51:06.090Z,56703.13
2024-05-09T14:53:36.293Z,56699.13
2024-05-09T14:56:07.335Z,56701.13
2024-05-09T14:58:38.032Z,56705.16
2024-05-09T15:01:08.450Z,56703.13
2024-05-09T15:03:39.071Z,56703.13
2024-05-09T15:06:09.697Z,56705.16
2024-05-09T15:08:40.489Z,56703.13
2024-05-09T15:11:10.985Z,56705.16
2024-05-09T15:13:41.988Z,56703.13
2024-05-09T15:16:12.400Z,56709.16
2024-05-09T15:18:44.062Z,56709.16
2024-05-09T15:21:14.604Z,56709.16
2024-05-09T15:23:46.095Z,56709.16
2024-05-09T15:26:16.892Z,56707.16
2024-05-09T15:28:48.172Z,56709.16
2024-05-09T15:31:39.815Z,56707.16
2024-05-09T15:34:34.315Z,56709.16
2024-05-09T15:37:31.754Z,56709.16
2024-05-09T15:40:05.610Z,56707.16
2024-05-09T15:42:39.700Z,56707.16
2024-05-09T15:45:14.138Z,56705.16
2024-05-09T15:47:45.081Z,56705.16
2024-05-09T15:50:23.483Z,56705.16
2024-05-09T15:52:59.157Z,56703.13
2024-05-09T15:55:35.197Z,56697.09
2024-05-09T15:58:07.334Z,56701.13
2024-05-09T16:00:42.263Z,56703.13
2024-05-09T16:03:15.798Z,56701.13
2024-05-09T16:05:48.011Z,56701.13
2024-05-09T16:08:22.267Z,56705.16
2024-05-09T16:10:54.003Z,56703.13
2024-05-09T16:13:24.708Z,56701.13
2024-05-09T16:15:56.666Z,56699.13
2024-05-09T16:18:27.423Z,56701.13
2024-05-09T16:21:01.063Z,56703.13
2024-05-09T16:23:32.047Z,56697.09
2024-05-09T16:26:03.874Z,56695.09
2024-05-09T16:28:34.963Z,56697.09
2024-05-09T16:31:05.906Z,56697.09
2024-05-09T16:33:37.212Z,56697.09
2024-05-09T16:36:08.983Z,56699.13
2024-05-09T16:38:41.316Z,56693.09
2024-05-09T16:41:11.754Z,56695.09
2024-05-09T16:43:42.643Z,56693.09
2024-05-09T16:46:13.798Z,56695.09
2024-05-09T16:48:46.853Z,56697.09
2024-05-09T16:51:17.951Z,56695.09
2024-05-09T16:53:48.508Z,56697.09
2024-05-09T16:56:20.067Z,56699.13
2024-05-09T16:58:51.191Z,56699.13
2024-05-09T17:01:22.477Z,56699.13
2024-05-09T17:03:53.534Z,56697.09
2024-05-09T17:06:24.932Z,56703.13
2024-05-09T17:08:59.085Z,56699.13
2024-05-09T17:11:33.185Z,56697.09
2024-05-09T17:14:04.541Z,56701.13
2024-05-09T17:16:37.080Z,56701.13
2024-05-09T17:19:08.331Z,56699.13
2024-05-09T17:21:40.103Z,56695.09
2024-05-09T17:24:11.162Z,56697.09
2024-05-09T17:26:42.273Z,56697.09
2024-05-09T17:29:14.360Z,56697.09
2024-05-09T17:31:45.206Z,56699.13
2024-05-09T17:34:16.434Z,56697.09
2024-05-09T17:36:48.139Z,56695.09
2024-05-09T17:39:19.070Z,56699.13
2024-05-09T17:41:58.040Z,56703.13
2024-05-09T17:44:31.667Z,56701.13
2024-05-09T17:47:08.519Z,56697.09
2024-05-09T17:49:45.720Z,56701.13
2024-05-09T17:52:17.435Z,56701.13
2024-05-09T17:54:48.658Z,56701.13
2024-05-09T17:57:19.916Z,56697.09
2024-05-09T17:59:53.237Z,56697.09
2024-05-09T18:02:24.552Z,56697.09
2024-05-09T18:04:55.871Z,56695.09
2024-05-09T18:07:27.008Z,56689.06
2024-05-09T18:09:58.047Z,56695.09
2024-05-09T18:12:29.060Z,56693.09
2024-05-09T18:15:00.613Z,56691.06
2024-05-09T18:17:32.961Z,56693.09
2024-05-09T18:20:09.017Z,56693.09
2024-05-09T18:22:40.149Z,56689.06
2024-05-09T18:25:11.436Z,56691.06
2024-05-09T18:27:42.386Z,56687.06
2024-05-09T18:30:24.216Z,56691.06
2024-05-09T18:33:03.033Z,56689.06
2024-05-09T18:35:36.980Z,56687.06
2024-05-09T18:38:09.308Z,56691.06
2024-05-09T18:40:41.867Z,56691.06
2024-05-09T18:43:14.513Z,56689.06
2024-05-09T18:45:45.853Z,56689.06
2024-05-09T18:48:17.178Z,56689.06
2024-05-09T18:50:48.159Z,56689.06
2024-05-09T18:53:19.320Z,56689.06
2024-05-09T18:55:50.110Z,56685.03
2024-05-09T18:58:20.933Z,56691.06
2024-05-09T19:00:54.295Z,56683.03
2024-05-09T19:03:26.654Z,56685.03
2024-05-09T19:05:57.658Z,56687.06
2024-05-09T19:08:29.888Z,56687.06
2024-05-09T19:11:00.581Z,56687.06
2024-05-09T19:13:32.046Z,56685.03
2024-05-09T19:16:03.062Z,56685.03
2024-05-09T19:18:34.834Z,56685.03
2024-05-09T19:21:06.078Z,56685.03
2024-05-09T19:23:38.456Z,56687.06
2024-05-09T19:26:15.166Z,56683.03
2024-05-09T19:28:46.227Z,56687.06
2024-05-09T19:31:17.166Z,56687.06
2024-05-09T19:33:48.126Z,56687.06
2024-05-09T19:36:20.700Z,56685.03
2024-05-09T19:38:52.861Z,56687.06
2024-05-09T19:41:23.920Z,56685.03
2024-05-09T19:43:54.435Z,56683.03
2024-05-09T19:46:25.656Z,56683.03
2024-05-09T19:48:56.568Z,56683.03
2024-05-09T19:51:27.351Z,56683.03
2024-05-09T19:53:57.950Z,56683.03
2024-05-09T19:56:28.707Z,56683.03
2024-05-09T19:58:59.624Z,56685.03
2024-05-09T20:01:30.564Z,56681.03
2024-05-09T20:04:01.765Z,56681.03
2024-05-09T20:06:32.721Z,56681.03
2024-05-09T20:09:03.198Z,56685.03
2024-05-09T20:11:39.172Z,56681.03
2024-05-09T20:14:57.573Z,56681.03
2024-05-09T20:17:51.988Z,56681.03
2024-05-09T20:20:44.889Z,56679.00
2024-05-09T20:23:16.217Z,56683.03
2024-05-09T20:25:46.648Z,56681.03
2024-05-09T20:28:17.522Z,56677.00
2024-05-09T20:30:48.383Z,56679.00
2024-05-09T20:33:19.231Z,56681.03
2024-05-09T20:35:50.241Z,56677.00
2024-05-09T20:38:20.534Z,56677.00
2024-05-09T20:40:51.840Z,56677.00
2024-05-09T20:43:22.722Z,56675.00
2024-05-09T20:45:53.889Z,56675.00
2024-05-09T20:48:25.752Z,56677.00
2024-05-09T20:50:56.492Z,56677.00
2024-05-09T20:53:26.864Z,56675.00
2024-05-09T20:55:57.664Z,56677.00
2024-05-09T20:58:28.578Z,56677.00
2024-05-09T21:00:59.709Z,56675.00
2024-05-09T21:03:30.082Z,56677.00
2024-05-09T21:06:01.036Z,56672.97
2024-05-09T21:08:31.649Z,56675.00
2024-05-09T21:11:02.632Z,56672.97
2024-05-09T21:13:33.565Z,56675.00
2024-05-09T21:16:04.530Z,56672.97
2024-05-09T21:18:35.419Z,56672.97
2024-05-09T21:21:06.693Z,56675.00
2024-05-09T21:23:38.887Z,56679.00
2024-05-09T21:26:09.215Z,56675.00
2024-05-09T21:28:39.842Z,56672.97
2024-05-09T21:31:11.048Z,56670.97
2024-05-09T21:33:42.134Z,56670.97
2024-05-09T21:36:13.003Z,56675.00
2024-05-09T21:38:43.459Z,56675.00
2024-05-09T21:41:14.421Z,56672.97
2024-05-09T21:43:44.946Z,56675.00
2024-05-09T21:46:15.293Z,56675.00
2024-05-09T21:48:46.200Z,56670.97
2024-05-09T21:51:17.368Z,56670.97
2024-05-09T21:53:47.923Z,56675.00
2024-05-09T21:56:18.504Z,56670.97
2024-05-09T21:58:49.131Z,56670.97
2024-05-09T22:01:20.266Z,56672.97
2024-05-09T22:03:51.090Z,56668.97
2024-05-09T22:06:21.840Z,56668.97
2024-05-09T22:08:52.386Z,56672.97
2024-05-09T22:11:23.126Z,56672.97
2024-05-09T22:13:53.742Z,56672.97
2024-05-09T22:16:24.723Z,56670.97
2024-05-09T22:18:55.660Z,56672.97
2024-05-09T22:21:27.062Z,56670.97
2024-05-09T22:23:57.518Z,56668.97
2024-05-09T22:26:28.407Z,56670.97
2024-05-09T22:28:58.685Z,56672.97
2024-05-09T22:31:29.492Z,56672.97
2024-05-09T22:33:59.913Z,56670.97
2024-05-09T22:36:30.709Z,56672.97
2024-05-09T22:39:01.454Z,56672.97
2024-05-09T22:41:32.234Z,56668.97
2024-05-09T22:44:03.587Z,56668.97
2024-05-09T22:46:34.348Z,56670.97
2024-05-09T22:49:05.382Z,56668.97
2024-05-09T22:51:37.035Z,56668.97
2024-05-09T22:54:08.940Z,56670.97
2024-05-09T22:56:39.166Z,56670.97
2024-05-09T22:59:09.672Z,56670.97
2024-05-09T23:01:40.838Z,56668.97
2024-05-09T23:04:11.588Z,56666.94
2024-05-09T23:06:43.273Z,56670.97
2024-05-09T23:09:13.890Z,56668.97
2024-05-09T23:11:46.500Z,56668.97
2024-05-09T23:14:17.067Z,56672.97
2024-05-09T23:16:47.948Z,56672.97
2024-05-09T23:19:18.661Z,56668.97
2024-05-09T23:21:50.208Z,56670.97
2024-05-09T23:24:20.826Z,56668.97
2024-05-09T23:26:51.638Z,56668.97
2024-05-09T23:29:22.227Z,56670.97
2024-05-09T23:31:52.642Z,56666.94
2024-05-09T23:34:23.759Z,56672.97
2024-05-09T23:36:55.073Z,56668.97
2024-05-09T23:39:25.948Z,56668.97
2024-05-09T23:41:56.638Z,56668.97
2024-05-09T23:44:27.214Z,56668.97
2024-05-09T23:46:58.051Z,56668.97
2024-05-09T23:49:29.148Z,56668.97
2024-05-09T23:52:00.159Z,56668.97
2024-05-09T23:54:30.894Z,56670.97
2024-05-09T23:57:01.607Z,56668.97
2024-05-09T23:59:32.230Z,56666.94
